sensor_id;sensor_type;location;lat;lon;timestamp;P1;durP1;ratioP1;P2;durP2;ratioP2
7031;SDS011;3557;48.880;8.328;2023-07-02T00:00:09;3.17;;;2.92;;
7031;SDS011;3557;48.880;8.328;2023-07-02T00:02:37;3.40;;;3.10;;
7031;SDS011;3557;48.880;8.328;2023-07-02T00:05:05;3.05;;;2.72;;
7031;SDS011;3557;48.880;8.328;2023-07-02T00:07:34;3.42;;;3.03;;
7031;SDS011;3557;48.880;8.328;2023-07-02T00:10:02;3.65;;;2.85;;
7031;SDS011;3557;48.880;8.328;2023-07-02T00:12:30;2.88;;;2.58;;
7031;SDS011;3557;48.880;8.328;2023-07-02T00:14:58;3.33;;;3.00;;
7031;SDS011;3557;48.880;8.328;2023-07-02T00:17:26;3.78;;;2.92;;
7031;SDS011;3557;48.880;8.328;2023-07-02T00:19:53;3.63;;;2.83;;
7031;SDS011;3557;48.880;8.328;2023-07-02T00:22:20;3.58;;;2.78;;
7031;SDS011;3557;48.880;8.328;2023-07-02T00:24:49;4.50;;;2.88;;
7031;SDS011;3557;48.880;8.328;2023-07-02T00:27:20;2.70;;;2.50;;
7031;SDS011;3557;48.880;8.328;2023-07-02T00:29:48;3.03;;;2.70;;
7031;SDS011;3557;48.880;8.328;2023-07-02T00:32:16;3.15;;;2.63;;
7031;SDS011;3557;48.880;8.328;2023-07-02T00:34:43;4.47;;;2.90;;
7031;SDS011;3557;48.880;8.328;2023-07-02T00:37:10;2.92;;;2.60;;
7031;SDS011;3557;48.880;8.328;2023-07-02T00:39:38;4.07;;;2.60;;
7031;SDS011;3557;48.880;8.328;2023-07-02T00:42:06;3.17;;;2.60;;
7031;SDS011;3557;48.880;8.328;2023-07-02T00:44:36;3.08;;;2.70;;
7031;SDS011;3557;48.880;8.328;2023-07-02T00:47:06;3.05;;;2.50;;
7031;SDS011;3557;48.880;8.328;2023-07-02T00:49:33;2.78;;;2.58;;
7031;SDS011;3557;48.880;8.328;2023-07-02T00:52:01;3.00;;;2.70;;
7031;SDS011;3557;48.880;8.328;2023-07-02T00:54:30;2.92;;;2.72;;
7031;SDS011;3557;48.880;8.328;2023-07-02T00:56:59;3.53;;;2.63;;
7031;SDS011;3557;48.880;8.328;2023-07-02T00:59:29;3.72;;;2.50;;
7031;SDS011;3557;48.880;8.328;2023-07-02T01:02:01;5.00;;;2.60;;
7031;SDS011;3557;48.880;8.328;2023-07-02T01:04:30;3.55;;;2.80;;
7031;SDS011;3557;48.880;8.328;2023-07-02T01:06:57;3.33;;;2.50;;
7031;SDS011;3557;48.880;8.328;2023-07-02T01:09:25;2.67;;;2.40;;
7031;SDS011;3557;48.880;8.328;2023-07-02T01:11:53;4.35;;;2.45;;
7031;SDS011;3557;48.880;8.328;2023-07-02T01:14:23;2.65;;;2.38;;
7031;SDS011;3557;48.880;8.328;2023-07-02T01:16:54;3.15;;;2.50;;
7031;SDS011;3557;48.880;8.328;2023-07-02T01:19:28;3.45;;;2.60;;
7031;SDS011;3557;48.880;8.328;2023-07-02T01:22:06;2.95;;;2.42;;
7031;SDS011;3557;48.880;8.328;2023-07-02T01:24:34;2.60;;;2.20;;
7031;SDS011;3557;48.880;8.328;2023-07-02T01:27:02;3.30;;;2.50;;
7031;SDS011;3557;48.880;8.328;2023-07-02T01:29:30;4.50;;;2.60;;
7031;SDS011;3557;48.880;8.328;2023-07-02T01:32:02;4.25;;;2.35;;
7031;SDS011;3557;48.880;8.328;2023-07-02T01:34:31;2.67;;;2.33;;
7031;SDS011;3557;48.880;8.328;2023-07-02T01:36:58;3.15;;;2.55;;
7031;SDS011;3557;48.880;8.328;2023-07-02T01:39:26;2.67;;;2.38;;
7031;SDS011;3557;48.880;8.328;2023-07-02T01:41:54;4.32;;;2.60;;
7031;SDS011;3557;48.880;8.328;2023-07-02T01:44:27;3.42;;;2.58;;
7031;SDS011;3557;48.880;8.328;2023-07-02T01:46:54;3.58;;;2.70;;
7031;SDS011;3557;48.880;8.328;2023-07-02T01:49:23;3.28;;;2.35;;
7031;SDS011;3557;48.880;8.328;2023-07-02T01:51:53;3.75;;;2.60;;
7031;SDS011;3557;48.880;8.328;2023-07-02T01:54:22;3.92;;;2.60;;
7031;SDS011;3557;48.880;8.328;2023-07-02T01:56:52;3.65;;;2.72;;
7031;SDS011;3557;48.880;8.328;2023-07-02T01:59:20;6.15;;;2.47;;
7031;SDS011;3557;48.880;8.328;2023-07-02T02:01:47;4.97;;;3.20;;
7031;SDS011;3557;48.880;8.328;2023-07-02T02:04:15;5.47;;;2.30;;
7031;SDS011;3557;48.880;8.328;2023-07-02T02:06:43;3.05;;;2.42;;
7031;SDS011;3557;48.880;8.328;2023-07-02T02:09:12;3.40;;;2.45;;
7031;SDS011;3557;48.880;8.328;2023-07-02T02:11:39;3.25;;;2.60;;
7031;SDS011;3557;48.880;8.328;2023-07-02T02:14:09;5.82;;;2.90;;
7031;SDS011;3557;48.880;8.328;2023-07-02T02:16:36;4.10;;;2.60;;
7031;SDS011;3557;48.880;8.328;2023-07-02T02:19:04;3.20;;;2.75;;
7031;SDS011;3557;48.880;8.328;2023-07-02T02:21:32;5.50;;;2.65;;
7031;SDS011;3557;48.880;8.328;2023-07-02T02:23:59;5.85;;;2.80;;
7031;SDS011;3557;48.880;8.328;2023-07-02T02:26:28;5.47;;;2.70;;
7031;SDS011;3557;48.880;8.328;2023-07-02T02:28:56;5.63;;;2.90;;
7031;SDS011;3557;48.880;8.328;2023-07-02T02:31:24;4.15;;;2.50;;
7031;SDS011;3557;48.880;8.328;2023-07-02T02:33:52;5.35;;;2.80;;
7031;SDS011;3557;48.880;8.328;2023-07-02T02:36:19;5.00;;;2.90;;
7031;SDS011;3557;48.880;8.328;2023-07-02T02:38:46;3.92;;;2.63;;
7031;SDS011;3557;48.880;8.328;2023-07-02T02:41:15;3.85;;;2.60;;
7031;SDS011;3557;48.880;8.328;2023-07-02T02:43:49;6.00;;;2.75;;
7031;SDS011;3557;48.880;8.328;2023-07-02T02:46:21;3.83;;;2.80;;
7031;SDS011;3557;48.880;8.328;2023-07-02T02:48:50;5.40;;;2.70;;
7031;SDS011;3557;48.880;8.328;2023-07-02T02:51:17;4.70;;;2.67;;
7031;SDS011;3557;48.880;8.328;2023-07-02T02:53:45;5.30;;;3.28;;
7031;SDS011;3557;48.880;8.328;2023-07-02T02:56:12;5.80;;;2.75;;
7031;SDS011;3557;48.880;8.328;2023-07-02T02:58:40;3.70;;;2.80;;
7031;SDS011;3557;48.880;8.328;2023-07-02T03:01:09;5.95;;;3.00;;
7031;SDS011;3557;48.880;8.328;2023-07-02T03:03:37;4.82;;;2.80;;
7031;SDS011;3557;48.880;8.328;2023-07-02T03:06:09;4.78;;;2.72;;
7031;SDS011;3557;48.880;8.328;2023-07-02T03:08:38;6.65;;;3.17;;
7031;SDS011;3557;48.880;8.328;2023-07-02T03:11:06;5.97;;;2.80;;
7031;SDS011;3557;48.880;8.328;2023-07-02T03:13:34;3.80;;;2.80;;
7031;SDS011;3557;48.880;8.328;2023-07-02T03:16:01;4.13;;;3.08;;
7031;SDS011;3557;48.880;8.328;2023-07-02T03:18:30;4.03;;;3.13;;
7031;SDS011;3557;48.880;8.328;2023-07-02T03:20:57;4.65;;;3.00;;
7031;SDS011;3557;48.880;8.328;2023-07-02T03:23:25;4.47;;;2.83;;
7031;SDS011;3557;48.880;8.328;2023-07-02T03:25:52;5.75;;;3.15;;
7031;SDS011;3557;48.880;8.328;2023-07-02T03:28:19;4.00;;;2.85;;
7031;SDS011;3557;48.880;8.328;2023-07-02T03:30:47;5.25;;;2.63;;
7031;SDS011;3557;48.880;8.328;2023-07-02T03:33:14;6.53;;;3.10;;
7031;SDS011;3557;48.880;8.328;2023-07-02T03:35:43;6.80;;;3.03;;
7031;SDS011;3557;48.880;8.328;2023-07-02T03:38:10;4.18;;;2.72;;
7031;SDS011;3557;48.880;8.328;2023-07-02T03:40:37;5.90;;;2.92;;
7031;SDS011;3557;48.880;8.328;2023-07-02T03:43:05;5.50;;;3.30;;
7031;SDS011;3557;48.880;8.328;2023-07-02T03:45:32;4.40;;;2.83;;
7031;SDS011;3557;48.880;8.328;2023-07-02T03:47:59;5.47;;;3.35;;
7031;SDS011;3557;48.880;8.328;2023-07-02T03:50:27;5.68;;;3.28;;
7031;SDS011;3557;48.880;8.328;2023-07-02T03:52:55;7.45;;;3.25;;
7031;SDS011;3557;48.880;8.328;2023-07-02T03:55:23;5.93;;;3.28;;
7031;SDS011;3557;48.880;8.328;2023-07-02T03:57:50;7.50;;;3.22;;
7031;SDS011;3557;48.880;8.328;2023-07-02T04:00:18;6.72;;;3.55;;
7031;SDS011;3557;48.880;8.328;2023-07-02T04:02:45;5.88;;;3.05;;
7031;SDS011;3557;48.880;8.328;2023-07-02T04:05:13;6.18;;;3.53;;
7031;SDS011;3557;48.880;8.328;2023-07-02T04:07:40;8.65;;;3.42;;
7031;SDS011;3557;48.880;8.328;2023-07-02T04:10:09;5.70;;;3.13;;
7031;SDS011;3557;48.880;8.328;2023-07-02T04:12:36;4.70;;;3.05;;
7031;SDS011;3557;48.880;8.328;2023-07-02T04:15:04;9.38;;;3.42;;
7031;SDS011;3557;48.880;8.328;2023-07-02T04:17:33;5.00;;;3.15;;
7031;SDS011;3557;48.880;8.328;2023-07-02T04:20:01;5.72;;;3.13;;
7031;SDS011;3557;48.880;8.328;2023-07-02T04:22:29;4.03;;;2.90;;
7031;SDS011;3557;48.880;8.328;2023-07-02T04:24:56;6.80;;;3.17;;
7031;SDS011;3557;48.880;8.328;2023-07-02T04:27:25;4.10;;;3.28;;
7031;SDS011;3557;48.880;8.328;2023-07-02T04:29:53;8.35;;;3.92;;
7031;SDS011;3557;48.880;8.328;2023-07-02T04:32:21;6.50;;;3.17;;
7031;SDS011;3557;48.880;8.328;2023-07-02T04:34:48;6.72;;;2.85;;
7031;SDS011;3557;48.880;8.328;2023-07-02T04:37:15;7.65;;;3.00;;
7031;SDS011;3557;48.880;8.328;2023-07-02T04:39:42;5.60;;;3.05;;
7031;SDS011;3557;48.880;8.328;2023-07-02T04:42:10;5.88;;;3.00;;
7031;SDS011;3557;48.880;8.328;2023-07-02T04:44:41;7.88;;;3.13;;
7031;SDS011;3557;48.880;8.328;2023-07-02T04:47:09;5.10;;;3.10;;
7031;SDS011;3557;48.880;8.328;2023-07-02T04:49:36;5.97;;;3.05;;
7031;SDS011;3557;48.880;8.328;2023-07-02T04:52:04;4.80;;;3.00;;
7031;SDS011;3557;48.880;8.328;2023-07-02T04:54:32;5.15;;;3.08;;
7031;SDS011;3557;48.880;8.328;2023-07-02T04:56:59;6.10;;;2.88;;
7031;SDS011;3557;48.880;8.328;2023-07-02T04:59:26;6.50;;;3.20;;
7031;SDS011;3557;48.880;8.328;2023-07-02T05:01:55;11.10;;;3.25;;
7031;SDS011;3557;48.880;8.328;2023-07-02T05:04:22;4.95;;;3.22;;
7031;SDS011;3557;48.880;8.328;2023-07-02T05:06:50;3.38;;;2.92;;
7031;SDS011;3557;48.880;8.328;2023-07-02T05:09:17;8.07;;;3.05;;
7031;SDS011;3557;48.880;8.328;2023-07-02T05:11:44;8.65;;;3.40;;
7031;SDS011;3557;48.880;8.328;2023-07-02T05:14:12;5.72;;;3.30;;
7031;SDS011;3557;48.880;8.328;2023-07-02T05:16:39;7.68;;;3.42;;
7031;SDS011;3557;48.880;8.328;2023-07-02T05:19:08;6.32;;;2.92;;
7031;SDS011;3557;48.880;8.328;2023-07-02T05:21:35;9.90;;;3.08;;
7031;SDS011;3557;48.880;8.328;2023-07-02T05:24:03;5.07;;;3.03;;
7031;SDS011;3557;48.880;8.328;2023-07-02T05:26:31;8.07;;;3.13;;
7031;SDS011;3557;48.880;8.328;2023-07-02T05:28:59;7.28;;;3.25;;
7031;SDS011;3557;48.880;8.328;2023-07-02T05:31:27;3.83;;;3.20;;
7031;SDS011;3557;48.880;8.328;2023-07-02T05:33:54;4.80;;;3.20;;
7031;SDS011;3557;48.880;8.328;2023-07-02T05:36:23;4.95;;;3.47;;
7031;SDS011;3557;48.880;8.328;2023-07-02T05:38:50;4.82;;;3.20;;
7031;SDS011;3557;48.880;8.328;2023-07-02T05:41:18;6.97;;;2.83;;
7031;SDS011;3557;48.880;8.328;2023-07-02T05:43:45;5.32;;;3.17;;
7031;SDS011;3557;48.880;8.328;2023-07-02T05:46:13;7.15;;;3.00;;
7031;SDS011;3557;48.880;8.328;2023-07-02T05:48:40;3.67;;;2.78;;
7031;SDS011;3557;48.880;8.328;2023-07-02T05:51:08;6.00;;;3.25;;
7031;SDS011;3557;48.880;8.328;2023-07-02T05:53:37;5.32;;;3.22;;
7031;SDS011;3557;48.880;8.328;2023-07-02T05:56:04;8.32;;;3.30;;
7031;SDS011;3557;48.880;8.328;2023-07-02T05:58:32;7.88;;;3.30;;
7031;SDS011;3557;48.880;8.328;2023-07-02T06:00:59;6.28;;;3.80;;
7031;SDS011;3557;48.880;8.328;2023-07-02T06:03:27;7.82;;;3.83;;
7031;SDS011;3557;48.880;8.328;2023-07-02T06:05:54;10.23;;;4.18;;
7031;SDS011;3557;48.880;8.328;2023-07-02T06:08:21;7.82;;;4.20;;
7031;SDS011;3557;48.880;8.328;2023-07-02T06:10:50;9.30;;;4.72;;
7031;SDS011;3557;48.880;8.328;2023-07-02T06:13:18;7.88;;;4.53;;
7031;SDS011;3557;48.880;8.328;2023-07-02T06:15:45;10.50;;;4.75;;
7031;SDS011;3557;48.880;8.328;2023-07-02T06:18:13;10.48;;;5.47;;
7031;SDS011;3557;48.880;8.328;2023-07-02T06:20:42;10.32;;;5.50;;
7031;SDS011;3557;48.880;8.328;2023-07-02T06:23:09;9.52;;;5.47;;
7031;SDS011;3557;48.880;8.328;2023-07-02T06:25:37;12.40;;;6.28;;
7031;SDS011;3557;48.880;8.328;2023-07-02T06:28:05;13.80;;;6.40;;
7031;SDS011;3557;48.880;8.328;2023-07-02T06:30:33;9.55;;;6.13;;
7031;SDS011;3557;48.880;8.328;2023-07-02T06:33:00;9.07;;;5.82;;
7031;SDS011;3557;48.880;8.328;2023-07-02T06:35:28;10.45;;;5.72;;
7031;SDS011;3557;48.880;8.328;2023-07-02T06:37:55;15.63;;;5.97;;
7031;SDS011;3557;48.880;8.328;2023-07-02T06:40:22;15.23;;;6.10;;
7031;SDS011;3557;48.880;8.328;2023-07-02T06:42:49;10.48;;;6.78;;
7031;SDS011;3557;48.880;8.328;2023-07-02T06:45:18;10.32;;;6.75;;
7031;SDS011;3557;48.880;8.328;2023-07-02T06:47:45;11.35;;;6.70;;
7031;SDS011;3557;48.880;8.328;2023-07-02T06:50:13;12.57;;;7.22;;
7031;SDS011;3557;48.880;8.328;2023-07-02T06:52:40;10.48;;;6.72;;
7031;SDS011;3557;48.880;8.328;2023-07-02T06:55:08;12.38;;;7.15;;
7031;SDS011;3557;48.880;8.328;2023-07-02T06:57:41;11.35;;;7.25;;
7031;SDS011;3557;48.880;8.328;2023-07-02T07:00:10;13.50;;;7.25;;
7031;SDS011;3557;48.880;8.328;2023-07-02T07:02:40;14.63;;;7.93;;
7031;SDS011;3557;48.880;8.328;2023-07-02T07:05:08;11.73;;;7.57;;
7031;SDS011;3557;48.880;8.328;2023-07-02T07:07:35;12.95;;;8.30;;
7031;SDS011;3557;48.880;8.328;2023-07-02T07:10:03;14.65;;;8.00;;
7031;SDS011;3557;48.880;8.328;2023-07-02T07:12:32;10.98;;;7.47;;
7031;SDS011;3557;48.880;8.328;2023-07-02T07:14:59;12.77;;;7.70;;
7031;SDS011;3557;48.880;8.328;2023-07-02T07:17:27;11.20;;;7.32;;
7031;SDS011;3557;48.880;8.328;2023-07-02T07:19:56;16.27;;;8.35;;
7031;SDS011;3557;48.880;8.328;2023-07-02T07:22:23;12.00;;;7.57;;
7031;SDS011;3557;48.880;8.328;2023-07-02T07:24:51;12.20;;;7.57;;
7031;SDS011;3557;48.880;8.328;2023-07-02T07:27:18;13.00;;;7.93;;
7031;SDS011;3557;48.880;8.328;2023-07-02T07:29:45;10.77;;;7.97;;
7031;SDS011;3557;48.880;8.328;2023-07-02T07:32:13;13.00;;;9.05;;
7031;SDS011;3557;48.880;8.328;2023-07-02T07:34:41;11.80;;;8.32;;
7031;SDS011;3557;48.880;8.328;2023-07-02T07:37:10;14.05;;;8.27;;
7031;SDS011;3557;48.880;8.328;2023-07-02T07:39:37;12.95;;;8.25;;
7031;SDS011;3557;48.880;8.328;2023-07-02T07:42:05;12.95;;;8.02;;
7031;SDS011;3557;48.880;8.328;2023-07-02T07:44:33;13.10;;;8.52;;
7031;SDS011;3557;48.880;8.328;2023-07-02T07:47:00;12.77;;;9.02;;
7031;SDS011;3557;48.880;8.328;2023-07-02T07:49:28;12.82;;;8.13;;
7031;SDS011;3557;48.880;8.328;2023-07-02T07:51:55;19.02;;;9.43;;
7031;SDS011;3557;48.880;8.328;2023-07-02T07:54:24;17.38;;;10.07;;
7031;SDS011;3557;48.880;8.328;2023-07-02T07:56:51;15.70;;;10.15;;
7031;SDS011;3557;48.880;8.328;2023-07-02T07:59:18;17.80;;;10.70;;
7031;SDS011;3557;48.880;8.328;2023-07-02T08:01:46;18.80;;;11.63;;
7031;SDS011;3557;48.880;8.328;2023-07-02T08:04:14;16.38;;;11.80;;
7031;SDS011;3557;48.880;8.328;2023-07-02T08:06:41;20.55;;;11.63;;
7031;SDS011;3557;48.880;8.328;2023-07-02T08:09:08;18.42;;;11.98;;
7031;SDS011;3557;48.880;8.328;2023-07-02T08:11:37;19.98;;;11.93;;
7031;SDS011;3557;48.880;8.328;2023-07-02T08:14:05;20.63;;;12.77;;
7031;SDS011;3557;48.880;8.328;2023-07-02T08:16:32;18.75;;;12.10;;
7031;SDS011;3557;48.880;8.328;2023-07-02T08:19:00;19.38;;;12.10;;
7031;SDS011;3557;48.880;8.328;2023-07-02T08:21:28;18.48;;;12.38;;
7031;SDS011;3557;48.880;8.328;2023-07-02T08:23:55;20.08;;;13.23;;
7031;SDS011;3557;48.880;8.328;2023-07-02T08:26:23;19.48;;;13.23;;
7031;SDS011;3557;48.880;8.328;2023-07-02T08:28:51;21.92;;;12.90;;
7031;SDS011;3557;48.880;8.328;2023-07-02T08:31:19;21.92;;;13.13;;
7031;SDS011;3557;48.880;8.328;2023-07-02T08:33:46;18.90;;;12.02;;
7031;SDS011;3557;48.880;8.328;2023-07-02T08:36:13;18.73;;;11.52;;
7031;SDS011;3557;48.880;8.328;2023-07-02T08:38:41;17.80;;;11.60;;
7031;SDS011;3557;48.880;8.328;2023-07-02T08:41:08;19.83;;;12.20;;
7031;SDS011;3557;48.880;8.328;2023-07-02T08:43:36;18.33;;;11.90;;
7031;SDS011;3557;48.880;8.328;2023-07-02T08:46:04;17.92;;;11.65;;
7031;SDS011;3557;48.880;8.328;2023-07-02T08:48:32;18.17;;;11.52;;
7031;SDS011;3557;48.880;8.328;2023-07-02T08:51:00;16.92;;;11.35;;
7031;SDS011;3557;48.880;8.328;2023-07-02T08:53:29;17.95;;;11.30;;
7031;SDS011;3557;48.880;8.328;2023-07-02T08:55:59;19.02;;;11.45;;
7031;SDS011;3557;48.880;8.328;2023-07-02T08:58:26;18.25;;;11.88;;
7031;SDS011;3557;48.880;8.328;2023-07-02T09:01:10;17.20;;;10.77;;
7031;SDS011;3557;48.880;8.328;2023-07-02T09:03:39;18.52;;;12.45;;
7031;SDS011;3557;48.880;8.328;2023-07-02T09:06:08;17.33;;;10.73;;
7031;SDS011;3557;48.880;8.328;2023-07-02T09:08:37;16.75;;;10.45;;
7031;SDS011;3557;48.880;8.328;2023-07-02T09:11:05;21.73;;;11.70;;
7031;SDS011;3557;48.880;8.328;2023-07-02T09:13:44;16.52;;;11.68;;
7031;SDS011;3557;48.880;8.328;2023-07-02T09:16:24;20.95;;;11.52;;
7031;SDS011;3557;48.880;8.328;2023-07-02T09:18:56;18.40;;;11.63;;
7031;SDS011;3557;48.880;8.328;2023-07-02T09:21:27;17.38;;;11.73;;
7031;SDS011;3557;48.880;8.328;2023-07-02T09:24:11;17.90;;;10.48;;
7031;SDS011;3557;48.880;8.328;2023-07-02T09:26:42;18.15;;;11.80;;
7031;SDS011;3557;48.880;8.328;2023-07-02T09:29:10;16.35;;;11.10;;
7031;SDS011;3557;48.880;8.328;2023-07-02T09:31:46;15.73;;;11.07;;
7031;SDS011;3557;48.880;8.328;2023-07-02T09:34:13;16.58;;;10.68;;
7031;SDS011;3557;48.880;8.328;2023-07-02T09:36:41;18.52;;;11.10;;
7031;SDS011;3557;48.880;8.328;2023-07-02T09:39:11;20.90;;;11.85;;
7031;SDS011;3557;48.880;8.328;2023-07-02T09:41:40;17.88;;;11.43;;
7031;SDS011;3557;48.880;8.328;2023-07-02T09:44:09;18.00;;;11.18;;
7031;SDS011;3557;48.880;8.328;2023-07-02T09:46:37;17.48;;;10.65;;
7031;SDS011;3557;48.880;8.328;2023-07-02T09:49:11;18.45;;;11.02;;
7031;SDS011;3557;48.880;8.328;2023-07-02T09:51:40;18.63;;;11.50;;
7031;SDS011;3557;48.880;8.328;2023-07-02T09:54:08;18.05;;;11.68;;
7031;SDS011;3557;48.880;8.328;2023-07-02T09:56:36;17.05;;;10.95;;
7031;SDS011;3557;48.880;8.328;2023-07-02T09:59:03;17.10;;;10.98;;
7031;SDS011;3557;48.880;8.328;2023-07-02T10:01:30;17.60;;;11.48;;
7031;SDS011;3557;48.880;8.328;2023-07-02T10:03:58;17.45;;;11.23;;
7031;SDS011;3557;48.880;8.328;2023-07-02T10:06:43;16.13;;;10.98;;
7031;SDS011;3557;48.880;8.328;2023-07-02T10:09:15;16.55;;;11.27;;
7031;SDS011;3557;48.880;8.328;2023-07-02T10:11:43;16.27;;;10.82;;
7031;SDS011;3557;48.880;8.328;2023-07-02T10:14:10;21.13;;;11.75;;
7031;SDS011;3557;48.880;8.328;2023-07-02T10:16:50;21.67;;;11.57;;
7031;SDS011;3557;48.880;8.328;2023-07-02T10:19:20;16.00;;;10.68;;
7031;SDS011;3557;48.880;8.328;2023-07-02T10:22:00;17.90;;;11.27;;
7031;SDS011;3557;48.880;8.328;2023-07-02T10:24:28;15.90;;;11.40;;
7031;SDS011;3557;48.880;8.328;2023-07-02T10:26:56;16.88;;;10.95;;
7031;SDS011;3557;48.880;8.328;2023-07-02T10:29:26;20.55;;;12.55;;
7031;SDS011;3557;48.880;8.328;2023-07-02T10:31:55;17.67;;;11.43;;
7031;SDS011;3557;48.880;8.328;2023-07-02T10:34:31;15.68;;;11.10;;
7031;SDS011;3557;48.880;8.328;2023-07-02T10:37:00;17.48;;;11.55;;
7031;SDS011;3557;48.880;8.328;2023-07-02T10:39:28;20.60;;;12.02;;
7031;SDS011;3557;48.880;8.328;2023-07-02T10:42:05;18.85;;;11.85;;
7031;SDS011;3557;48.880;8.328;2023-07-02T10:44:33;18.55;;;11.27;;
7031;SDS011;3557;48.880;8.328;2023-07-02T10:47:03;16.45;;;11.38;;
7031;SDS011;3557;48.880;8.328;2023-07-02T10:49:32;19.27;;;12.10;;
7031;SDS011;3557;48.880;8.328;2023-07-02T10:52:00;20.10;;;11.57;;
7031;SDS011;3557;48.880;8.328;2023-07-02T10:54:38;19.00;;;11.45;;
7031;SDS011;3557;48.880;8.328;2023-07-02T10:57:06;21.90;;;11.15;;
7031;SDS011;3557;48.880;8.328;2023-07-02T10:59:34;16.42;;;10.93;;
7031;SDS011;3557;48.880;8.328;2023-07-02T11:02:02;16.77;;;11.48;;
7031;SDS011;3557;48.880;8.328;2023-07-02T11:04:30;16.75;;;10.98;;
7031;SDS011;3557;48.880;8.328;2023-07-02T11:06:59;16.63;;;11.20;;
7031;SDS011;3557;48.880;8.328;2023-07-02T11:09:26;19.38;;;11.40;;
7031;SDS011;3557;48.880;8.328;2023-07-02T11:11:54;17.77;;;11.07;;
7031;SDS011;3557;48.880;8.328;2023-07-02T11:14:26;17.23;;;10.60;;
7031;SDS011;3557;48.880;8.328;2023-07-02T11:16:54;15.38;;;10.77;;
7031;SDS011;3557;48.880;8.328;2023-07-02T11:19:22;19.00;;;11.65;;
7031;SDS011;3557;48.880;8.328;2023-07-02T11:21:51;16.40;;;11.27;;
7031;SDS011;3557;48.880;8.328;2023-07-02T11:24:28;16.23;;;11.10;;
7031;SDS011;3557;48.880;8.328;2023-07-02T11:26:57;19.85;;;10.82;;
7031;SDS011;3557;48.880;8.328;2023-07-02T11:29:26;17.25;;;11.30;;
7031;SDS011;3557;48.880;8.328;2023-07-02T11:32:04;18.08;;;11.07;;
7031;SDS011;3557;48.880;8.328;2023-07-02T11:34:32;17.73;;;10.82;;
7031;SDS011;3557;48.880;8.328;2023-07-02T11:37:01;14.88;;;10.30;;
7031;SDS011;3557;48.880;8.328;2023-07-02T11:39:29;15.05;;;10.13;;
7031;SDS011;3557;48.880;8.328;2023-07-02T11:41:56;14.13;;;10.00;;
7031;SDS011;3557;48.880;8.328;2023-07-02T11:44:24;14.65;;;9.82;;
7031;SDS011;3557;48.880;8.328;2023-07-02T11:46:51;15.10;;;10.52;;
7031;SDS011;3557;48.880;8.328;2023-07-02T11:49:22;16.38;;;9.93;;
7031;SDS011;3557;48.880;8.328;2023-07-02T11:51:49;14.85;;;10.23;;
7031;SDS011;3557;48.880;8.328;2023-07-02T11:54:18;12.80;;;9.15;;
7031;SDS011;3557;48.880;8.328;2023-07-02T11:56:46;14.23;;;9.90;;
7031;SDS011;3557;48.880;8.328;2023-07-02T11:59:13;15.50;;;10.25;;
7031;SDS011;3557;48.880;8.328;2023-07-02T12:01:41;16.38;;;9.90;;
7031;SDS011;3557;48.880;8.328;2023-07-02T12:04:09;15.20;;;10.07;;
7031;SDS011;3557;48.880;8.328;2023-07-02T12:06:38;15.57;;;9.80;;
7031;SDS011;3557;48.880;8.328;2023-07-02T12:09:05;16.33;;;9.70;;
7031;SDS011;3557;48.880;8.328;2023-07-02T12:11:34;15.70;;;9.65;;
7031;SDS011;3557;48.880;8.328;2023-07-02T12:14:01;13.18;;;9.18;;
7031;SDS011;3557;48.880;8.328;2023-07-02T12:16:29;14.65;;;9.57;;
7031;SDS011;3557;48.880;8.328;2023-07-02T12:18:56;14.60;;;9.32;;
7031;SDS011;3557;48.880;8.328;2023-07-02T12:21:23;14.45;;;9.38;;
7031;SDS011;3557;48.880;8.328;2023-07-02T12:23:51;13.15;;;9.23;;
7031;SDS011;3557;48.880;8.328;2023-07-02T12:26:18;15.40;;;9.75;;
7031;SDS011;3557;48.880;8.328;2023-07-02T12:28:47;20.30;;;10.30;;
7031;SDS011;3557;48.880;8.328;2023-07-02T12:31:14;11.93;;;9.18;;
7031;SDS011;3557;48.880;8.328;2023-07-02T12:33:41;19.80;;;9.60;;
7031;SDS011;3557;48.880;8.328;2023-07-02T12:36:09;12.73;;;8.85;;
7031;SDS011;3557;48.880;8.328;2023-07-02T12:38:36;12.30;;;9.52;;
7031;SDS011;3557;48.880;8.328;2023-07-02T12:41:03;14.30;;;9.38;;
7031;SDS011;3557;48.880;8.328;2023-07-02T12:43:31;13.50;;;9.30;;
7031;SDS011;3557;48.880;8.328;2023-07-02T12:45:59;13.90;;;9.18;;
7031;SDS011;3557;48.880;8.328;2023-07-02T12:48:27;15.43;;;9.30;;
7031;SDS011;3557;48.880;8.328;2023-07-02T12:50:55;13.18;;;9.73;;
7031;SDS011;3557;48.880;8.328;2023-07-02T12:53:23;13.88;;;9.38;;
7031;SDS011;3557;48.880;8.328;2023-07-02T12:55:52;14.25;;;9.00;;
7031;SDS011;3557;48.880;8.328;2023-07-02T12:58:19;11.70;;;9.02;;
7031;SDS011;3557;48.880;8.328;2023-07-02T13:00:47;14.85;;;9.25;;
7031;SDS011;3557;48.880;8.328;2023-07-02T13:03:16;15.65;;;9.48;;
7031;SDS011;3557;48.880;8.328;2023-07-02T13:05:44;14.73;;;9.50;;
7031;SDS011;3557;48.880;8.328;2023-07-02T13:08:11;11.98;;;8.93;;
7031;SDS011;3557;48.880;8.328;2023-07-02T13:10:38;13.77;;;9.18;;
7031;SDS011;3557;48.880;8.328;2023-07-02T13:13:06;17.13;;;9.38;;
7031;SDS011;3557;48.880;8.328;2023-07-02T13:15:33;12.30;;;8.68;;
7031;SDS011;3557;48.880;8.328;2023-07-02T13:18:00;14.48;;;9.52;;
7031;SDS011;3557;48.880;8.328;2023-07-02T13:20:29;12.52;;;9.27;;
7031;SDS011;3557;48.880;8.328;2023-07-02T13:22:57;14.00;;;9.02;;
7031;SDS011;3557;48.880;8.328;2023-07-02T13:25:24;15.25;;;9.38;;
7031;SDS011;3557;48.880;8.328;2023-07-02T13:27:52;11.63;;;8.63;;
7031;SDS011;3557;48.880;8.328;2023-07-02T13:30:19;12.27;;;9.00;;
7031;SDS011;3557;48.880;8.328;2023-07-02T13:32:46;14.18;;;8.57;;
7031;SDS011;3557;48.880;8.328;2023-07-02T13:35:14;15.00;;;8.80;;
7031;SDS011;3557;48.880;8.328;2023-07-02T13:37:43;12.77;;;9.07;;
7031;SDS011;3557;48.880;8.328;2023-07-02T13:40:10;12.00;;;8.32;;
7031;SDS011;3557;48.880;8.328;2023-07-02T13:42:40;12.02;;;8.60;;
7031;SDS011;3557;48.880;8.328;2023-07-02T13:45:08;12.20;;;8.95;;
7031;SDS011;3557;48.880;8.328;2023-07-02T13:47:36;11.65;;;8.98;;
7031;SDS011;3557;48.880;8.328;2023-07-02T13:50:04;12.13;;;8.40;;
7031;SDS011;3557;48.880;8.328;2023-07-02T13:52:32;12.82;;;9.27;;
7031;SDS011;3557;48.880;8.328;2023-07-02T13:55:01;11.73;;;9.05;;
7031;SDS011;3557;48.880;8.328;2023-07-02T13:57:28;13.27;;;9.07;;
7031;SDS011;3557;48.880;8.328;2023-07-02T13:59:57;13.07;;;9.10;;
7031;SDS011;3557;48.880;8.328;2023-07-02T14:02:24;15.10;;;9.07;;
7031;SDS011;3557;48.880;8.328;2023-07-02T14:04:52;13.50;;;8.90;;
7031;SDS011;3557;48.880;8.328;2023-07-02T14:07:19;13.20;;;8.68;;
7031;SDS011;3557;48.880;8.328;2023-07-02T14:09:46;13.35;;;8.43;;
7031;SDS011;3557;48.880;8.328;2023-07-02T14:12:14;14.25;;;8.77;;
7031;SDS011;3557;48.880;8.328;2023-07-02T14:14:42;12.75;;;8.38;;
7031;SDS011;3557;48.880;8.328;2023-07-02T14:17:12;16.27;;;8.63;;
7031;SDS011;3557;48.880;8.328;2023-07-02T14:19:40;13.75;;;9.27;;
7031;SDS011;3557;48.880;8.328;2023-07-02T14:22:07;11.80;;;8.55;;
7031;SDS011;3557;48.880;8.328;2023-07-02T14:24:34;13.43;;;8.75;;
7031;SDS011;3557;48.880;8.328;2023-07-02T14:27:02;12.32;;;8.52;;
7031;SDS011;3557;48.880;8.328;2023-07-02T14:29:30;13.05;;;8.32;;
7031;SDS011;3557;48.880;8.328;2023-07-02T14:31:57;13.20;;;8.38;;
7031;SDS011;3557;48.880;8.328;2023-07-02T14:34:26;11.43;;;8.75;;
7031;SDS011;3557;48.880;8.328;2023-07-02T14:36:55;14.65;;;9.00;;
7031;SDS011;3557;48.880;8.328;2023-07-02T14:39:22;12.00;;;8.55;;
7031;SDS011;3557;48.880;8.328;2023-07-02T14:41:50;13.73;;;9.15;;
7031;SDS011;3557;48.880;8.328;2023-07-02T14:44:17;14.60;;;9.10;;
7031;SDS011;3557;48.880;8.328;2023-07-02T14:46:44;12.90;;;8.55;;
7031;SDS011;3557;48.880;8.328;2023-07-02T14:49:12;13.02;;;9.13;;
7031;SDS011;3557;48.880;8.328;2023-07-02T14:51:41;13.40;;;9.27;;
7031;SDS011;3557;48.880;8.328;2023-07-02T14:54:09;14.65;;;8.77;;
7031;SDS011;3557;48.880;8.328;2023-07-02T14:56:36;14.43;;;9.55;;
7031;SDS011;3557;48.880;8.328;2023-07-02T14:59:04;12.02;;;8.82;;
7031;SDS011;3557;48.880;8.328;2023-07-02T15:01:34;16.77;;;8.98;;
7031;SDS011;3557;48.880;8.328;2023-07-02T15:04:01;13.05;;;8.82;;
7031;SDS011;3557;48.880;8.328;2023-07-02T15:06:28;12.27;;;9.02;;
7031;SDS011;3557;48.880;8.328;2023-07-02T15:08:57;13.25;;;8.77;;